Terminal Aerodrome Forecast
Issued by NWS

Home | Current Version | Previous Version | Text Only | Print | Product List | Glossary On
Versions: 1 2 3 4 5 6 7 8 9 10 11 12 13 14 15 16 17 18 19 20 21 22 23 24 25 26 27 28 29 30 31 32 33 34 35 36 37
000
FTUS41 KLWX 260524
TAFMTN
TAF
KMTN 260524Z 2606/2706 VRB03KT 4SM -DZ BR BKN008 OVC015
     FM260900 33005KT 2SM -DZ BR BKN004 OVC008
     FM261700 33004KT P6SM SCT008 OVC015
     FM262000 15004KT P6SM SCT015 SCT060
     FM270000 VRB03KT P6SM SCT060
     FM270400 VRB03KT 6SM BR BKN015 BKN060
     AMD NOT SKED=

USA.gov is the U.S. government's official web portal to all federal, state and local government web resources and services.